• Join FlightAware (Why Join?)
  • Login
  • US Flag 
02:56AM EDT


 

Airport Tracker/Info


-or-


 

Live Flight TrackerFlight Track Log ✈ UAL4336 ✈ 13-Apr-2013 ✈ KCLE - KMSN

Flight Track Log - Related Links

Times and Time Zones

All times are in EDT time to prevent confusion due to time zone crossing. See the UAL4336 flight status page for this flight to view local times or setup timezone preferences in your user account.

Time Position Orientation Groundspeed Altitude Reporting Facility
EDT Latitude Longitude Course Direction KTS MPH feet Rate Location/Type
09:04AM 41.3981 -81.8758 269° West 153 176 2,200  Level Cleveland Center
09:05AM 41.3975 -81.9256 269° West 196 226 4,200 2,700 Climbing Cleveland Center
09:06AM 41.4031 -81.9867 277° West 223 257 6,400 3,000 Climbing Cleveland Center
09:07AM 41.4378 -82.0483 307° West 234 269 9,500 2,700 Climbing Cleveland Center
09:08AM 41.4722 -82.1322 299° West 245 282 11,800 1,800 Climbing Cleveland Center
09:09AM 41.5164 -82.2386 299° West 281 323 13,200 1,500 Climbing Cleveland Center
09:10AM 41.5608 -82.3453 299° West 315 362 14,900 1,680 Climbing Cleveland Center
09:11AM 41.6069 -82.4519 300° West 332 382 16,600 1,560 Climbing Cleveland Center
09:12AM 41.6431 -82.5419 298° West 332 382 18,100 1,680 Climbing Cleveland Center
09:13AM 41.6931 -82.6603 300° West 332 382 20,000 1,800 Climbing Cleveland Center
09:14AM 41.7389 -82.7706 299° West 332 382 21,800 1,800 Climbing Cleveland Center
09:15AM 41.7847 -82.8833 299° West 332 382 23,600 1,560 Climbing Cleveland Center
09:16AM 41.8303 -82.9936 299° West 332 382 25,000 1,260 Climbing Cleveland Center
09:17AM 41.8758 -83.1097 298° West 332 382 26,200 1,200 Climbing Cleveland Center
09:18AM 41.9233 -83.2233 299° West 337 388 27,400 1,200 Climbing Cleveland Center
09:19AM 41.9686 -83.3342 299° West 337 388 28,700 1,260 Climbing Cleveland Center
09:20AM 42.0097 -83.4478 296° West 337 388 30,000 1,320 Climbing Cleveland Center
09:21AM 42.0647 -83.5733 301° West 343 395 31,400 1,320 Climbing Cleveland Center
09:22AM 42.1136 -83.6958 298° West 361 415 32,700 1,200 Climbing Cleveland Center
09:23AM 42.1644 -83.8217 299° West 372 428 33,800 600 Climbing Cleveland Center
09:24AM 42.2131 -83.9447 298° West 372 428 34,000 600 Climbing Cleveland Center
09:25AM 42.2469 -84.0672 291° West 362 417 35,100 960 Climbing Cleveland Center
09:26AM 42.2764 -84.1922 288° West 357 411 36,000 420 Climbing Cleveland Center
09:27AM 42.3053 -84.3286 286° West 357 411 36,000  Level Cleveland Center
09:28AM 42.3381 -84.4711 287° West 377 434 36,000  Level Cleveland Center
09:29AM 42.3689 -84.6081 287° West 385 443 36,000  Level Cleveland Center
09:29AM 42.3800 -84.6483 290° West 381 438 36,000  Level Chicago Center
09:30AM 42.4100 -84.7847 287° West 378 435 36,000  Level Chicago Center
09:31AM 42.4406 -84.9258 286° West 389 448 36,000  Level Chicago Center
09:32AM 42.4708 -85.0658 286° West 389 448 36,000  Level Chicago Center
09:33AM 42.5011 -85.2064 286° West 390 449 36,000  Level Chicago Center
09:34AM 42.5311 -85.3475 286° West 389 448 36,000  Level Chicago Center
09:35AM 42.5617 -85.4900 286° West 392 451 36,000  Level Chicago Center
09:36AM 42.5978 -85.6617 286° West 394 453 36,000 -540 Level Chicago Center
09:37AM 42.6283 -85.8053 286° West 395 455 35,000 -1,260 Descending Chicago Center
09:38AM 42.6561 -85.9436 285° West 382 440 33,500 -1,440 Descending Chicago Center
09:39AM 42.6769 -86.0769 282° West 364 419 32,100 -780 Descending Chicago Center
09:40AM 42.6986 -86.2156 282° West 370 426 32,000 -60 Descending Chicago Center
09:42AM 42.7214 -86.3628 282° West 390 449 32,000  Level Chicago Center
09:43AM 42.7447 -86.5128 282° West 402 463 32,000  Level Chicago Center
09:44AM 42.7667 -86.6606 281° West 398 458 32,000  Level Chicago Center
09:45AM 42.7892 -86.8042 282° West 389 448 32,000  Level Chicago Center
09:46AM 42.8094 -86.9456 281° West 381 438 32,000  Level Chicago Center
09:47AM 42.8308 -87.0908 281° West 389 448 32,000  Level Chicago Center
09:48AM 42.8528 -87.2353 282° West 392 451 32,000 -300 Level Chicago Center
09:49AM 42.8753 -87.3956 281° West 386 444 31,500 -960 Descending Chicago Center
09:50AM 42.8956 -87.5417 281° West 389 448 30,100 -1,440 Descending Chicago Center
09:51AM 42.9169 -87.6803 282° West 376 433 28,600 -1,740 Descending Chicago Center
09:52AM 42.9350 -87.8178 280° West 368 423 26,600 -2,280 Descending Chicago Center
09:53AM 42.9581 -87.9792 281° West 371 427 24,000 -2,460 Descending Chicago Center
09:54AM 42.9775 -88.1200 281° West 375 432 21,600 -2,280 Descending Chicago Center
09:55AM 42.9953 -88.2514 281° West 352 405 19,400 -2,160 Descending Chicago Center
09:56AM 43.0131 -88.3731 281° West 329 379 17,200 -2,100 Descending Chicago Center
09:57AM 43.0286 -88.4894 280° West 313 360 15,200 -1,980 Descending Chicago Center
09:58AM 43.0425 -88.6011 280° West 300 345 13,200 -1,740 Descending Chicago Center
09:59AM 43.0578 -88.7047 281° West 280 322 11,700 -1,380 Descending Chicago Center
10:00AM 43.0514 -88.7983 265° West 253 291 10,400 -1,380 Descending Chicago Center
10:01AM 43.0339 -88.8844 254° West 233 268 8,900 -1,500 Descending Chicago Center
10:02AM 43.0178 -88.9672 255° West 226 260 7,400 -1,620 Descending Chicago Center
10:03AM 42.9975 -89.0672 255° West 231 266 5,700 -1,320 Descending Chicago Center
10:04AM 42.9814 -89.1517 255° West 231 266 4,800 -840 Descending Chicago Center
10:05AM 42.9669 -89.2347 257° West 228 262 4,000 -840 Descending Chicago Center
10:06AM 42.9669 -89.3078 270° West 204 235 3,100 -480 Descending Chicago Center
10:07AM 43.0064 -89.3481 323° Northwest 201 231 3,100 -360 Level Chicago Center
10:08AM 43.0586 -89.3469 North 194 223 2,400 -780 Descending Chicago Center
10:09AM 43.0967 -89.3453 North 165 190 1,600 -540 Descending Chicago Center
10:10AM 43.1317 -89.3439 North 150 173 1,300 -300 Descending Chicago Center